createdAt,value
2018-11-26T00:01:46.677Z,65.30
2018-11-26T00:04:21.881Z,65.30
2018-11-26T00:06:51.500Z,65.40
2018-11-26T00:09:26.870Z,65.40
2018-11-26T00:11:56.412Z,65.40
2018-11-26T00:14:31.840Z,65.50
2018-11-26T00:17:01.255Z,65.60
2018-11-26T00:19:36.918Z,65.70
2018-11-26T00:22:06.774Z,65.70
2018-11-26T00:24:41.846Z,65.90
2018-11-26T00:27:11.783Z,66.00
2018-11-26T00:29:46.912Z,66.00
2018-11-26T00:32:16.251Z,66.00
2018-11-26T00:34:52.218Z,66.10
2018-11-26T00:37:21.567Z,66.20
2018-11-26T00:39:56.837Z,66.30
2018-11-26T00:42:26.270Z,66.50
2018-11-26T00:45:01.919Z,66.60
2018-11-26T00:47:31.907Z,66.50
2018-11-26T00:50:07.698Z,66.70
2018-11-26T00:52:39.993Z,66.70
2018-11-26T00:55:12.177Z,66.90
2018-11-26T00:57:42.099Z,66.80
2018-11-26T01:00:19.403Z,67.00
2018-11-26T01:02:48.825Z,67.00
2018-11-26T01:05:31.539Z,67.20
2018-11-26T01:08:00.923Z,67.50
2018-11-26T01:10:30.363Z,67.70
2018-11-26T01:12:59.703Z,67.70
2018-11-26T01:15:32.074Z,67.90
2018-11-26T01:18:02.042Z,67.90
2018-11-26T01:20:37.219Z,68.00
2018-11-26T01:23:07.026Z,68.00
2018-11-26T01:25:41.856Z,68.00
2018-11-26T01:28:11.326Z,68.10
2018-11-26T01:30:46.892Z,68.00
2018-11-26T01:33:16.308Z,68.00
2018-11-26T01:35:52.274Z,68.00
2018-11-26T01:38:21.633Z,67.90
2018-11-26T01:40:56.911Z,67.90
2018-11-26T01:43:26.256Z,67.90
2018-11-26T01:46:01.722Z,67.90
2018-11-26T01:48:31.110Z,67.90
2018-11-26T01:51:06.745Z,67.80
2018-11-26T01:53:35.883Z,68.60
2018-11-26T01:56:11.886Z,67.80
2018-11-26T01:58:41.395Z,67.80
2018-11-26T02:01:17.811Z,67.80
2018-11-26T02:03:47.360Z,67.80
2018-11-26T02:06:23.829Z,67.80
2018-11-26T02:08:53.332Z,67.80
2018-11-26T02:11:29.277Z,67.70
2018-11-26T02:13:59.260Z,67.70
2018-11-26T02:16:32.539Z,67.70
2018-11-26T02:19:01.981Z,67.70
2018-11-26T02:21:36.833Z,67.70
2018-11-26T02:24:06.513Z,67.70
2018-11-26T02:26:42.657Z,67.70
2018-11-26T02:29:12.019Z,67.80
2018-11-26T02:31:47.510Z,67.80
2018-11-26T02:34:16.944Z,67.90
2018-11-26T02:36:52.390Z,68.00
2018-11-26T02:39:22.049Z,68.10
2018-11-26T02:41:57.105Z,68.10
2018-11-26T02:44:28.606Z,68.30
2018-11-26T02:47:01.899Z,68.20
2018-11-26T02:49:32.646Z,68.10
2018-11-26T02:52:06.924Z,68.20
2018-11-26T02:54:36.330Z,68.10
2018-11-26T02:57:11.850Z,68.10
2018-11-26T02:59:41.326Z,68.10
2018-11-26T03:02:17.869Z,68.10
2018-11-26T03:04:47.814Z,68.10
2018-11-26T03:07:22.227Z,68.10
2018-11-26T03:09:51.652Z,68.10
2018-11-26T03:12:26.842Z,68.10
2018-11-26T03:14:56.254Z,68.10
2018-11-26T03:17:31.739Z,68.10
2018-11-26T03:20:01.162Z,68.10
2018-11-26T03:22:38.199Z,68.00
2018-11-26T03:25:09.124Z,67.90
2018-11-26T03:31:14.664Z,68.00
2018-11-26T03:33:48.226Z,67.90
2018-11-26T03:36:18.183Z,67.90
2018-11-26T03:38:53.839Z,67.90
2018-11-26T03:41:23.799Z,67.90
2018-11-26T03:43:59.370Z,68.10
2018-11-26T03:46:28.882Z,68.00
2018-11-26T03:49:03.189Z,68.10
2018-11-26T03:51:32.553Z,67.90
2018-11-26T03:54:10.805Z,68.10
2018-11-26T03:56:40.496Z,68.10
2018-11-26T03:59:13.133Z,68.20
2018-11-26T04:01:43.603Z,68.30
2018-11-26T04:04:17.953Z,68.30
2018-11-26T04:06:47.845Z,68.40
2018-11-26T04:09:23.478Z,68.50
2018-11-26T04:11:53.451Z,68.70
2018-11-26T04:14:28.870Z,68.70
2018-11-26T04:16:58.630Z,68.80
2018-11-26T04:19:32.984Z,68.70
2018-11-26T04:22:02.332Z,68.80
2018-11-26T04:24:38.031Z,68.80
2018-11-26T04:27:07.734Z,68.70
2018-11-26T04:29:42.785Z,68.70
2018-11-26T04:32:12.782Z,68.70
2018-11-26T04:34:48.623Z,68.80
2018-11-26T04:37:17.993Z,68.80
2018-11-26T04:39:53.250Z,68.70
2018-11-26T04:42:22.630Z,68.70
2018-11-26T04:44:57.921Z,68.70
2018-11-26T04:47:27.389Z,68.60
2018-11-26T04:50:03.064Z,68.70
2018-11-26T04:52:32.578Z,68.70
2018-11-26T04:55:10.207Z,68.70
2018-11-26T04:57:42.769Z,68.80
2018-11-26T05:00:14.734Z,68.70
2018-11-26T05:02:44.717Z,68.80
2018-11-26T05:05:17.937Z,68.90
2018-11-26T05:10:23.138Z,67.10
2018-11-26T05:12:52.473Z,66.40
2018-11-26T05:15:28.183Z,65.20
2018-11-26T05:17:58.178Z,64.00
2018-11-26T05:20:32.862Z,63.10
2018-11-26T05:23:02.812Z,63.10
2018-11-26T05:25:39.412Z,63.80
2018-11-26T05:28:09.571Z,64.30
2018-11-26T05:30:43.286Z,65.10
2018-11-26T05:33:13.221Z,65.90
2018-11-26T05:35:48.113Z,66.40
2018-11-26T05:38:17.556Z,66.90
2018-11-26T05:40:54.323Z,67.20
2018-11-26T05:43:24.861Z,67.60
2018-11-26T05:45:58.097Z,68.40
2018-11-26T05:48:27.475Z,68.60
2018-11-26T05:51:03.844Z,68.70
2018-11-26T05:53:33.758Z,68.70
2018-11-26T05:56:07.926Z,69.00
2018-11-26T05:58:37.754Z,69.10
2018-11-26T06:01:14.505Z,69.20
2018-11-26T06:03:44.518Z,69.50
2018-11-26T06:06:18.073Z,69.60
2018-11-26T06:08:47.454Z,70.40
2018-11-26T06:11:22.854Z,69.60
2018-11-26T06:13:52.380Z,69.60
2018-11-26T06:16:30.218Z,69.60
2018-11-26T06:18:59.585Z,69.50
2018-11-26T06:21:32.750Z,70.20
2018-11-26T06:24:02.221Z,69.40
2018-11-26T06:26:37.865Z,69.30
2018-11-26T06:29:07.322Z,69.20
2018-11-26T06:31:42.874Z,69.20
2018-11-26T06:34:12.293Z,69.10
2018-11-26T06:36:47.851Z,69.10
2018-11-26T06:39:17.858Z,68.90
2018-11-26T06:41:54.006Z,68.90
2018-11-26T06:44:23.345Z,68.80
2018-11-26T06:46:57.795Z,68.70
2018-11-26T06:49:27.287Z,68.70
2018-11-26T06:52:04.257Z,68.60
2018-11-26T06:54:34.211Z,68.50
2018-11-26T06:59:39.348Z,68.40
2018-11-26T07:02:08.777Z,68.40
2018-11-26T07:04:48.053Z,68.40
2018-11-26T07:07:17.948Z,68.20
2018-11-26T07:09:47.398Z,68.20
2018-11-26T07:12:17.326Z,68.20
2018-11-26T07:14:47.221Z,68.20
2018-11-26T07:17:16.675Z,68.00
2018-11-26T07:19:46.622Z,68.00
2018-11-26T07:22:16.002Z,67.90
2018-11-26T07:24:45.895Z,67.80
2018-11-26T07:27:15.361Z,67.80
2018-11-26T07:29:44.762Z,67.70
2018-11-26T07:32:14.199Z,67.70
2018-11-26T07:34:43.576Z,67.70
2018-11-26T07:37:15.048Z,67.60
2018-11-26T07:39:46.691Z,67.50
2018-11-26T07:42:16.107Z,67.40
2018-11-26T07:44:55.143Z,67.30
2018-11-26T07:47:24.358Z,67.30
2018-11-26T07:49:54.327Z,67.10
2018-11-26T07:52:23.767Z,67.00
2018-11-26T07:54:53.806Z,67.00
2018-11-26T07:57:23.906Z,66.90
2018-11-26T07:59:53.946Z,66.80
2018-11-26T08:02:23.321Z,66.80
2018-11-26T08:04:52.726Z,66.70
2018-11-26T08:13:31.467Z,66.50
2018-11-26T08:16:00.813Z,66.40
2018-11-26T08:18:31.924Z,66.20
2018-11-26T08:21:01.316Z,66.20
2018-11-26T08:23:31.304Z,66.20
2018-11-26T08:26:01.160Z,66.10
2018-11-26T08:28:31.854Z,66.10
2018-11-26T08:31:01.608Z,66.00
2018-11-26T08:33:31.373Z,65.90
2018-11-26T08:38:45.960Z,65.80
2018-11-26T08:41:16.615Z,65.70
2018-11-26T08:43:51.659Z,66.40
2018-11-26T08:46:31.815Z,65.60
2018-11-26T08:49:02.433Z,65.60
2018-11-26T08:51:32.238Z,65.50
2018-11-26T08:54:02.029Z,65.50
2018-11-26T08:56:32.102Z,65.40
2018-11-26T08:59:01.903Z,65.40
2018-11-26T09:01:33.403Z,65.30
2018-11-26T09:09:32.910Z,65.10
2018-11-26T09:12:00.538Z,65.10
2018-11-26T09:14:31.707Z,65.00
2018-11-26T09:17:01.420Z,65.00
2018-11-26T09:19:31.064Z,65.00
2018-11-26T09:22:00.747Z,64.90
2018-11-26T09:24:30.447Z,64.90
2018-11-26T09:27:00.094Z,64.80
2018-11-26T09:29:30.323Z,64.80
2018-11-26T09:32:00.703Z,64.60
2018-11-26T09:34:40.773Z,64.60
2018-11-26T09:37:14.134Z,64.50
2018-11-26T09:39:43.892Z,64.40
2018-11-26T09:42:23.859Z,64.40
2018-11-26T09:44:53.500Z,64.40
2018-11-26T09:47:26.385Z,64.40
2018-11-26T09:49:56.279Z,64.30
2018-11-26T09:52:26.050Z,65.00
2018-11-26T09:54:56.698Z,64.30
2018-11-26T09:57:26.901Z,64.20
2018-11-26T09:59:58.100Z,64.20
2018-11-26T10:02:28.764Z,64.20
2018-11-26T10:05:11.245Z,64.10
2018-11-26T10:07:41.039Z,64.00
2018-11-26T10:13:13.778Z,63.90
2018-11-26T10:15:43.136Z,63.90
2018-11-26T10:18:13.484Z,64.10
2018-11-26T10:20:42.881Z,63.90
2018-11-26T10:23:12.256Z,64.20
2018-11-26T10:25:41.629Z,63.80
2018-11-26T10:28:11.017Z,63.80
2018-11-26T10:30:40.345Z,63.80
2018-11-26T10:33:14.649Z,63.70
2018-11-26T10:35:39.267Z,63.70
2018-11-26T10:38:08.692Z,63.70
2018-11-26T10:40:38.086Z,63.70
2018-11-26T10:43:11.577Z,63.70
2018-11-26T10:45:37.693Z,63.70
2018-11-26T10:48:07.838Z,63.60
2018-11-26T10:50:37.222Z,63.70
2018-11-26T10:53:06.801Z,63.60
2018-11-26T10:55:37.366Z,63.60
2018-11-26T10:58:07.081Z,63.50
2018-11-26T11:01:40.669Z,63.50
2018-11-26T11:04:10.214Z,63.50
2018-11-26T11:06:55.831Z,63.50
2018-11-26T11:09:22.074Z,63.40
2018-11-26T11:11:51.465Z,63.40
2018-11-26T11:14:20.854Z,63.40
2018-11-26T11:16:50.249Z,63.40
2018-11-26T11:19:19.643Z,63.40
2018-11-26T11:21:49.103Z,63.40
2018-11-26T11:24:19.050Z,63.50
2018-11-26T11:26:48.389Z,63.40
2018-11-26T11:29:18.307Z,63.40
2018-11-26T11:31:48.339Z,63.40
2018-11-26T11:34:17.511Z,63.40
2018-11-26T11:36:46.895Z,63.40
2018-11-26T11:39:16.317Z,63.40
2018-11-26T11:41:45.699Z,63.40
2018-11-26T11:44:15.123Z,63.40
2018-11-26T11:46:44.226Z,63.40
2018-11-26T11:49:14.120Z,63.40
2018-11-26T11:51:43.637Z,63.20
2018-11-26T11:56:53.874Z,63.30
2018-11-26T11:59:23.220Z,63.20
2018-11-26T12:01:54.547Z,63.20
2018-11-26T12:04:24.504Z,63.10
2018-11-26T12:06:54.029Z,63.10
2018-11-26T12:09:24.013Z,63.10
2018-11-26T12:11:53.344Z,63.10
2018-11-26T12:14:22.747Z,63.10
2018-11-26T12:16:53.016Z,63.00
2018-11-26T12:19:22.440Z,63.70
2018-11-26T12:21:51.874Z,63.00
2018-11-26T12:24:21.233Z,63.00
2018-11-26T12:26:50.595Z,63.00
2018-11-26T12:29:20.040Z,62.90
2018-11-26T12:31:50.952Z,63.00
2018-11-26T12:34:20.916Z,63.00
2018-11-26T12:40:20.176Z,62.90
2018-11-26T12:42:59.510Z,62.90
2018-11-26T12:45:31.196Z,62.90
2018-11-26T12:48:00.838Z,62.90
2018-11-26T12:53:40.338Z,62.90
2018-11-26T12:56:10.266Z,62.90
2018-11-26T12:58:52.531Z,63.00
2018-11-26T13:01:21.899Z,63.00
2018-11-26T13:03:51.910Z,62.90
2018-11-26T13:06:21.892Z,62.90
2018-11-26T13:08:51.335Z,62.90
2018-11-26T13:11:21.791Z,62.80
2018-11-26T13:13:51.147Z,62.80
2018-11-26T13:19:01.256Z,62.80
2018-11-26T13:21:30.642Z,62.80
2018-11-26T13:24:02.360Z,62.80
2018-11-26T13:26:32.258Z,62.80
2018-11-26T13:29:01.645Z,62.70
2018-11-26T13:31:35.393Z,62.60
2018-11-26T13:34:05.339Z,62.60
2018-11-26T13:36:35.216Z,62.60
2018-11-26T13:39:07.244Z,62.60
2018-11-26T13:41:36.734Z,62.60
2018-11-26T13:44:06.903Z,62.60
2018-11-26T13:46:36.532Z,62.50
2018-11-26T13:49:06.271Z,62.50
2018-11-26T13:51:36.186Z,62.50
2018-11-26T13:54:06.263Z,62.50
2018-11-26T13:56:35.703Z,62.50
2018-11-26T13:59:05.147Z,62.50
2018-11-26T14:13:48.099Z,62.50
2018-11-26T14:16:17.589Z,62.50
2018-11-26T14:18:46.961Z,62.60
2018-11-26T14:21:16.365Z,62.60
2018-11-26T14:23:46.263Z,62.60
2018-11-26T14:26:15.664Z,62.60
2018-11-26T14:28:45.041Z,62.60
2018-11-26T14:31:14.524Z,62.50
2018-11-26T14:33:43.928Z,62.50
2018-11-26T14:36:13.307Z,62.50
2018-11-26T14:38:42.735Z,62.50
2018-11-26T14:41:12.074Z,62.50
2018-11-26T14:43:41.653Z,62.50
2018-11-26T14:46:11.204Z,62.50
2018-11-26T14:48:40.693Z,62.40
2018-11-26T14:51:10.119Z,62.40
2018-11-26T14:53:39.561Z,62.40
2018-11-26T14:56:09.312Z,62.40
2018-11-26T14:58:46.182Z,62.40
2018-11-26T15:01:16.318Z,62.40
2018-11-26T15:04:02.019Z,62.40
2018-11-26T15:06:33.231Z,62.40
2018-11-26T15:09:08.659Z,62.40
2018-11-26T15:14:38.854Z,62.50
2018-11-26T15:17:19.327Z,62.70
2018-11-26T15:19:48.863Z,62.80
2018-11-26T15:28:28.184Z,62.90
2018-11-26T15:30:57.675Z,62.90
2018-11-26T15:33:36.927Z,63.00
2018-11-26T15:36:06.431Z,63.10
2018-11-26T15:38:36.379Z,63.10
2018-11-26T15:41:06.365Z,63.20
2018-11-26T15:43:35.844Z,63.30
2018-11-26T15:46:07.930Z,63.40
2018-11-26T15:48:37.652Z,63.40
2018-11-26T15:51:07.251Z,63.50
2018-11-26T15:53:49.713Z,63.50
2018-11-26T15:56:19.121Z,63.50
2018-11-26T15:58:51.400Z,63.50
2018-11-26T16:01:20.762Z,63.60
2018-11-26T16:03:50.214Z,63.60
2018-11-26T16:06:20.325Z,63.60
2018-11-26T16:08:49.752Z,63.70
2018-11-26T16:11:19.170Z,63.70
2018-11-26T16:13:48.687Z,63.80
2018-11-26T16:22:26.361Z,63.20
2018-11-26T16:25:01.062Z,64.00
2018-11-26T16:27:30.186Z,64.00
2018-11-26T16:29:59.596Z,64.10
2018-11-26T16:32:29.076Z,64.10
2018-11-26T16:34:58.517Z,64.20
2018-11-26T16:37:27.925Z,64.20
2018-11-26T16:39:58.702Z,64.20
2018-11-26T16:42:28.105Z,64.30
2018-11-26T16:44:57.512Z,64.30
2018-11-26T16:47:27.024Z,64.30
2018-11-26T16:49:56.386Z,64.40
2018-11-26T16:52:25.819Z,64.50
2018-11-26T16:54:55.336Z,64.50
2018-11-26T16:57:24.787Z,64.50
2018-11-26T16:59:54.182Z,64.50
2018-11-26T17:02:24.487Z,64.60
2018-11-26T17:04:54.179Z,64.60
2018-11-26T17:07:24.099Z,64.60
2018-11-26T17:09:53.560Z,64.50
2018-11-26T17:12:22.979Z,64.30
2018-11-26T17:18:07.651Z,64.10
2018-11-26T17:20:45.512Z,63.90
2018-11-26T17:23:15.516Z,63.70
2018-11-26T17:25:57.000Z,63.50
2018-11-26T17:31:33.971Z,63.20
2018-11-26T17:34:13.169Z,63.20
2018-11-26T17:36:43.128Z,63.10
2018-11-26T17:39:12.729Z,63.00
2018-11-26T17:41:42.880Z,63.90
2018-11-26T17:44:12.983Z,66.80
2018-11-26T17:46:42.419Z,69.60
2018-11-26T17:49:11.905Z,73.50
2018-11-26T17:51:43.271Z,76.40
2018-11-26T17:54:30.454Z,77.30
2018-11-26T17:56:59.966Z,78.20
2018-11-26T17:59:37.964Z,78.30
2018-11-26T18:02:07.791Z,77.90
2018-11-26T18:04:37.289Z,77.90
2018-11-26T18:07:15.092Z,77.50
2018-11-26T18:09:44.564Z,77.00
2018-11-26T18:12:14.599Z,76.50
2018-11-26T18:14:44.064Z,76.10
2018-11-26T18:17:13.447Z,75.70
2018-11-26T18:19:46.902Z,75.50
2018-11-26T18:22:16.563Z,75.20
2018-11-26T18:24:46.016Z,74.60
2018-11-26T18:27:25.614Z,74.30
2018-11-26T18:29:55.125Z,74.00
2018-11-26T18:32:27.424Z,73.80
2018-11-26T18:34:57.371Z,73.60
2018-11-26T18:37:26.772Z,73.40
2018-11-26T18:39:56.958Z,73.20
2018-11-26T18:42:26.906Z,73.10
2018-11-26T18:44:56.470Z,72.80
2018-11-26T18:47:26.068Z,72.70
2018-11-26T18:49:56.086Z,72.50
2018-11-26T18:52:26.137Z,72.40
2018-11-26T18:54:55.622Z,72.20
2018-11-26T18:57:25.082Z,72.10
2018-11-26T18:59:54.508Z,72.00
2018-11-26T19:02:24.500Z,71.80
2018-11-26T19:04:53.950Z,71.70
2018-11-26T19:07:32.467Z,71.70
2018-11-26T19:10:01.970Z,71.60
2018-11-26T19:12:35.499Z,71.50
2018-11-26T19:15:08.858Z,71.40
2018-11-26T19:17:38.290Z,71.50
2018-11-26T19:20:11.208Z,71.10
2018-11-26T19:22:52.539Z,71.00
2018-11-26T19:25:22.563Z,70.80
2018-11-26T19:27:52.555Z,70.70
2018-11-26T19:30:23.264Z,70.80
2018-11-26T19:32:51.479Z,70.90
2018-11-26T19:35:20.870Z,70.90
2018-11-26T19:37:50.398Z,71.00
2018-11-26T19:40:20.183Z,71.10
2018-11-26T19:42:49.670Z,71.10
2018-11-26T19:45:20.534Z,70.90
2018-11-26T19:50:55.143Z,70.70
2018-11-26T19:53:24.571Z,70.90
2018-11-26T19:55:54.575Z,71.10
2018-11-26T19:58:24.136Z,70.70
2018-11-26T20:01:08.908Z,70.70
2018-11-26T20:03:41.362Z,70.50
2018-11-26T20:06:15.501Z,70.30
2018-11-26T20:08:46.607Z,70.10
2018-11-26T20:11:22.803Z,70.00
2018-11-26T20:13:52.797Z,70.90
2018-11-26T20:16:25.840Z,71.80
2018-11-26T20:18:55.492Z,72.20
2018-11-26T20:21:24.916Z,72.50
2018-11-26T20:23:59.391Z,72.90
2018-11-26T20:26:28.869Z,73.50
2018-11-26T20:29:06.837Z,74.20
2018-11-26T20:31:36.346Z,74.50
2018-11-26T20:34:06.096Z,74.80
2018-11-26T20:36:35.714Z,74.90
2018-11-26T20:39:08.429Z,75.30
2018-11-26T20:41:38.914Z,75.60
2018-11-26T20:44:09.686Z,75.70
2018-11-26T20:46:50.869Z,75.80
2018-11-26T20:49:20.261Z,75.70
2018-11-26T20:51:49.655Z,75.60
2018-11-26T20:54:19.600Z,76.00
2018-11-26T20:56:49.011Z,76.20
2018-11-26T20:59:19.061Z,76.70
2018-11-26T21:02:01.410Z,76.50
2018-11-26T21:04:35.740Z,76.40
2018-11-26T21:07:05.438Z,76.30
2018-11-26T21:09:34.875Z,76.70
2018-11-26T21:12:04.914Z,77.90
2018-11-26T21:17:22.800Z,79.10
2018-11-26T21:19:57.153Z,77.90
2018-11-26T21:22:44.597Z,76.00
2018-11-26T21:25:15.708Z,74.70
2018-11-26T21:27:45.201Z,73.90
2018-11-26T21:30:16.957Z,73.60
2018-11-26T21:32:47.689Z,73.80
2018-11-26T21:35:20.712Z,73.80
2018-11-26T21:37:52.124Z,73.90
2018-11-26T21:40:31.352Z,73.80
2018-11-26T21:43:01.025Z,73.90
2018-11-26T21:46:05.347Z,73.90
2018-11-26T21:51:50.424Z,73.90
2018-11-26T21:54:29.250Z,73.90
2018-11-26T21:56:59.596Z,73.80
2018-11-26T21:59:29.417Z,73.80
2018-11-26T22:01:59.544Z,73.70
2018-11-26T22:04:28.970Z,73.60
2018-11-26T22:06:58.466Z,74.50
2018-11-26T22:09:28.097Z,75.80
2018-11-26T22:11:57.763Z,77.00
2018-11-26T22:14:31.033Z,77.80
2018-11-26T22:17:00.447Z,78.30
2018-11-26T22:19:40.081Z,78.50
2018-11-26T22:22:10.003Z,78.70
2018-11-26T22:24:39.463Z,78.90
2018-11-26T22:27:08.900Z,79.00
2018-11-26T22:29:38.301Z,78.90
2018-11-26T22:32:08.328Z,78.90
2018-11-26T22:34:40.979Z,78.90
2018-11-26T22:37:10.856Z,78.80
2018-11-26T22:39:42.401Z,78.70
2018-11-26T22:42:12.333Z,78.60
2018-11-26T22:44:51.916Z,78.50
2018-11-26T22:47:21.315Z,79.10
2018-11-26T22:49:51.296Z,78.20
2018-11-26T22:52:21.492Z,78.10
2018-11-26T22:54:51.095Z,78.00
2018-11-26T22:57:20.600Z,77.80
2018-11-26T22:59:50.064Z,77.70
2018-11-26T23:02:20.023Z,77.60
2018-11-26T23:04:49.439Z,77.40
2018-11-26T23:07:18.864Z,77.30
2018-11-26T23:09:48.788Z,76.90
2018-11-26T23:12:18.752Z,76.80
2018-11-26T23:14:48.783Z,76.70
2018-11-26T23:17:18.264Z,76.50
2018-11-26T23:19:47.760Z,76.30
2018-11-26T23:22:17.127Z,76.20
2018-11-26T23:24:46.584Z,76.00
2018-11-26T23:27:26.620Z,75.80
2018-11-26T23:29:56.597Z,75.60
2018-11-26T23:32:29.690Z,75.40
2018-11-26T23:34:59.345Z,75.30
2018-11-26T23:37:28.761Z,75.20
2018-11-26T23:39:58.141Z,75.20
2018-11-26T23:42:28.097Z,75.10
2018-11-26T23:44:57.493Z,75.00
2018-11-26T23:47:26.979Z,75.00
2018-11-26T23:49:56.349Z,74.90
2018-11-26T23:52:26.311Z,74.80
2018-11-26T23:54:56.284Z,74.80
2018-11-26T23:57:25.610Z,74.70
2018-11-26T23:59:55.096Z,75.40
